CheckWX is a tool to help pilots better visualize weather data.  It is not intended as a substitute for an official pre-flight weather briefing.

06:10:28 UTC

KRAL METAR
Riverside Municipal Airport
Riverside, California, USA
Current

17 mins ago

KRAL 230553Z AUTO VRB03KT 10SM CLR 16/11 A2998 RMK AO2 SLP139 T01560111 10244 20150 51016
Observed
Apr-23 @ 05:53 UTC
Wind
  • Variable at 3 KTS
Visibility
10 SM
Flight Rules
VFR
Cloud Levels
  • Clear skies
Temperature
16°C / 61°F
Dewpoint
11°C / 52°F
Humidity
72%
Altimeter
29.98" Hg
Pressure
1015.22 hPa
Previous

1 hour ago

KRAL 230453Z AUTO 29005KT 10SM CLR 17/11 A2997 RMK AO2 SLP137 T01720106
Observed
Apr-23 @ 04:53 UTC
Wind
  • 290° at 5 KTS
Visibility
10 SM
Flight Rules
VFR
Cloud Levels
  • Clear skies
Temperature
17°C / 63°F
Dewpoint
11°C / 52°F
Humidity
68%
Altimeter
29.97" Hg
Pressure
1014.92 hPa
Previous

2 hours ago

KRAL 230353Z 00000KT 10SM CLR 19/11 A2994 RMK AO2 SLP128 T01940111
Observed
Apr-23 @ 03:53 UTC
Visibility
10 SM
Flight Rules
VFR
Cloud Levels
  • Clear skies
Temperature
19°C / 66°F
Dewpoint
11°C / 52°F
Humidity
60%
Altimeter
29.94" Hg
Pressure
1013.92 hPa